sensor_id;sensor_type;location;lat;lon;timestamp;P1;durP1;ratioP1;P2;durP2;ratioP2
60610;SDS011;46439;51.164;13.572;2024-03-02T00:01:09;48.30;;;29.90;;
60610;SDS011;46439;51.164;13.572;2024-03-02T00:03:38;44.90;;;28.90;;
60610;SDS011;46439;51.164;13.572;2024-03-02T00:06:07;44.20;;;28.40;;
60610;SDS011;46439;51.164;13.572;2024-03-02T00:08:35;44.70;;;27.10;;
60610;SDS011;46439;51.164;13.572;2024-03-02T00:11:03;49.90;;;28.30;;
60610;SDS011;46439;51.164;13.572;2024-03-02T00:13:31;44.90;;;28.90;;
60610;SDS011;46439;51.164;13.572;2024-03-02T00:16:01;44.90;;;28.50;;
60610;SDS011;46439;51.164;13.572;2024-03-02T00:18:32;43.00;;;27.60;;
60610;SDS011;46439;51.164;13.572;2024-03-02T00:21:03;43.50;;;28.20;;
60610;SDS011;46439;51.164;13.572;2024-03-02T00:23:36;46.40;;;28.30;;
60610;SDS011;46439;51.164;13.572;2024-03-02T00:26:05;45.70;;;27.50;;
60610;SDS011;46439;51.164;13.572;2024-03-02T00:28:38;44.90;;;28.00;;
60610;SDS011;46439;51.164;13.572;2024-03-02T00:31:10;46.00;;;28.40;;
60610;SDS011;46439;51.164;13.572;2024-03-02T00:33:40;42.80;;;27.20;;
60610;SDS011;46439;51.164;13.572;2024-03-02T00:36:10;39.50;;;25.90;;
60610;SDS011;46439;51.164;13.572;2024-03-02T00:38:46;45.00;;;28.20;;
60610;SDS011;46439;51.164;13.572;2024-03-02T00:41:17;46.20;;;27.60;;
60610;SDS011;46439;51.164;13.572;2024-03-02T00:46:20;44.10;;;26.50;;
60610;SDS011;46439;51.164;13.572;2024-03-02T00:48:54;44.30;;;27.20;;
60610;SDS011;46439;51.164;13.572;2024-03-02T00:51:24;45.10;;;28.10;;
60610;SDS011;46439;51.164;13.572;2024-03-02T00:53:53;41.60;;;26.30;;
60610;SDS011;46439;51.164;13.572;2024-03-02T00:56:26;43.50;;;27.00;;
60610;SDS011;46439;51.164;13.572;2024-03-02T00:58:54;41.10;;;27.90;;
60610;SDS011;46439;51.164;13.572;2024-03-02T01:01:22;40.20;;;27.50;;
60610;SDS011;46439;51.164;13.572;2024-03-02T01:03:50;40.20;;;27.30;;
60610;SDS011;46439;51.164;13.572;2024-03-02T01:06:19;40.80;;;26.70;;
60610;SDS011;46439;51.164;13.572;2024-03-02T01:08:48;44.30;;;28.70;;
60610;SDS011;46439;51.164;13.572;2024-03-02T01:11:17;45.70;;;28.30;;
60610;SDS011;46439;51.164;13.572;2024-03-02T01:13:48;45.90;;;28.60;;
60610;SDS011;46439;51.164;13.572;2024-03-02T01:16:16;40.90;;;27.00;;
60610;SDS011;46439;51.164;13.572;2024-03-02T01:18:44;46.90;;;28.10;;
60610;SDS011;46439;51.164;13.572;2024-03-02T01:21:12;44.00;;;27.90;;
60610;SDS011;46439;51.164;13.572;2024-03-02T01:23:40;42.40;;;27.20;;
60610;SDS011;46439;51.164;13.572;2024-03-02T01:26:09;40.60;;;26.10;;
60610;SDS011;46439;51.164;13.572;2024-03-02T01:28:38;38.80;;;26.30;;
60610;SDS011;46439;51.164;13.572;2024-03-02T01:31:06;41.70;;;26.70;;
60610;SDS011;46439;51.164;13.572;2024-03-02T01:33:34;41.00;;;26.10;;
60610;SDS011;46439;51.164;13.572;2024-03-02T01:36:02;39.30;;;26.60;;
60610;SDS011;46439;51.164;13.572;2024-03-02T01:38:31;40.10;;;26.80;;
60610;SDS011;46439;51.164;13.572;2024-03-02T01:41:00;41.20;;;25.10;;
60610;SDS011;46439;51.164;13.572;2024-03-02T01:43:28;38.90;;;25.50;;
60610;SDS011;46439;51.164;13.572;2024-03-02T01:45:57;38.10;;;25.30;;
60610;SDS011;46439;51.164;13.572;2024-03-02T01:48:25;38.00;;;25.10;;
60610;SDS011;46439;51.164;13.572;2024-03-02T01:50:53;41.30;;;25.50;;
60610;SDS011;46439;51.164;13.572;2024-03-02T01:53:21;38.40;;;25.30;;
60610;SDS011;46439;51.164;13.572;2024-03-02T01:55:50;45.10;;;25.90;;
60610;SDS011;46439;51.164;13.572;2024-03-02T01:58:18;36.90;;;23.80;;
60610;SDS011;46439;51.164;13.572;2024-03-02T02:00:46;39.80;;;24.40;;
60610;SDS011;46439;51.164;13.572;2024-03-02T02:03:14;35.70;;;24.30;;
60610;SDS011;46439;51.164;13.572;2024-03-02T02:05:43;39.70;;;24.70;;
60610;SDS011;46439;51.164;13.572;2024-03-02T02:08:12;37.60;;;24.30;;
60610;SDS011;46439;51.164;13.572;2024-03-02T02:10:40;39.20;;;23.60;;
60610;SDS011;46439;51.164;13.572;2024-03-02T02:13:08;39.10;;;24.50;;
60610;SDS011;46439;51.164;13.572;2024-03-02T02:15:36;40.30;;;26.10;;
60610;SDS011;46439;51.164;13.572;2024-03-02T02:18:05;41.20;;;25.50;;
60610;SDS011;46439;51.164;13.572;2024-03-02T02:20:33;43.20;;;26.10;;
60610;SDS011;46439;51.164;13.572;2024-03-02T02:23:02;38.80;;;26.50;;
60610;SDS011;46439;51.164;13.572;2024-03-02T02:25:32;38.00;;;25.40;;
60610;SDS011;46439;51.164;13.572;2024-03-02T02:28:00;42.00;;;25.60;;
60610;SDS011;46439;51.164;13.572;2024-03-02T02:30:29;38.80;;;25.20;;
60610;SDS011;46439;51.164;13.572;2024-03-02T02:32:58;41.40;;;25.30;;
60610;SDS011;46439;51.164;13.572;2024-03-02T02:35:26;38.10;;;24.80;;
60610;SDS011;46439;51.164;13.572;2024-03-02T02:37:57;36.90;;;24.40;;
60610;SDS011;46439;51.164;13.572;2024-03-02T02:40:26;41.90;;;25.50;;
60610;SDS011;46439;51.164;13.572;2024-03-02T02:42:57;40.40;;;24.70;;
60610;SDS011;46439;51.164;13.572;2024-03-02T02:45:25;44.20;;;25.80;;
60610;SDS011;46439;51.164;13.572;2024-03-02T02:47:53;39.70;;;25.00;;
60610;SDS011;46439;51.164;13.572;2024-03-02T02:50:22;36.00;;;24.30;;
60610;SDS011;46439;51.164;13.572;2024-03-02T02:52:50;42.00;;;25.20;;
60610;SDS011;46439;51.164;13.572;2024-03-02T02:55:18;35.60;;;23.40;;
60610;SDS011;46439;51.164;13.572;2024-03-02T02:57:46;37.70;;;24.80;;
60610;SDS011;46439;51.164;13.572;2024-03-02T03:00:15;34.80;;;23.10;;
60610;SDS011;46439;51.164;13.572;2024-03-02T03:02:46;38.40;;;24.10;;
60610;SDS011;46439;51.164;13.572;2024-03-02T03:05:15;38.20;;;24.50;;
60610;SDS011;46439;51.164;13.572;2024-03-02T03:07:44;38.20;;;24.20;;
60610;SDS011;46439;51.164;13.572;2024-03-02T03:10:13;45.10;;;24.90;;
60610;SDS011;46439;51.164;13.572;2024-03-02T03:12:41;34.60;;;23.60;;
60610;SDS011;46439;51.164;13.572;2024-03-02T03:15:10;38.70;;;23.40;;
60610;SDS011;46439;51.164;13.572;2024-03-02T03:17:38;37.80;;;23.50;;
60610;SDS011;46439;51.164;13.572;2024-03-02T03:20:07;33.60;;;22.30;;
60610;SDS011;46439;51.164;13.572;2024-03-02T03:22:36;33.60;;;22.70;;
60610;SDS011;46439;51.164;13.572;2024-03-02T03:25:05;34.90;;;22.20;;
60610;SDS011;46439;51.164;13.572;2024-03-02T03:27:37;33.00;;;21.60;;
60610;SDS011;46439;51.164;13.572;2024-03-02T03:30:06;34.60;;;22.30;;
60610;SDS011;46439;51.164;13.572;2024-03-02T03:32:35;33.60;;;22.60;;
60610;SDS011;46439;51.164;13.572;2024-03-02T03:35:04;37.00;;;22.60;;
60610;SDS011;46439;51.164;13.572;2024-03-02T03:37:33;36.20;;;22.00;;
60610;SDS011;46439;51.164;13.572;2024-03-02T03:40:01;40.60;;;23.00;;
60610;SDS011;46439;51.164;13.572;2024-03-02T03:42:36;32.40;;;21.40;;
60610;SDS011;46439;51.164;13.572;2024-03-02T03:45:05;34.80;;;22.60;;
60610;SDS011;46439;51.164;13.572;2024-03-02T03:47:41;35.50;;;21.50;;
60610;SDS011;46439;51.164;13.572;2024-03-02T03:50:10;34.20;;;22.60;;
60610;SDS011;46439;51.164;13.572;2024-03-02T03:52:38;33.10;;;22.20;;
60610;SDS011;46439;51.164;13.572;2024-03-02T03:55:07;33.90;;;22.30;;
60610;SDS011;46439;51.164;13.572;2024-03-02T03:57:36;32.40;;;20.90;;
60610;SDS011;46439;51.164;13.572;2024-03-02T04:00:05;36.20;;;21.90;;
60610;SDS011;46439;51.164;13.572;2024-03-02T04:02:36;32.90;;;21.50;;
60610;SDS011;46439;51.164;13.572;2024-03-02T04:05:05;35.60;;;22.10;;
60610;SDS011;46439;51.164;13.572;2024-03-02T04:07:36;34.30;;;22.50;;
60610;SDS011;46439;51.164;13.572;2024-03-02T04:10:08;35.10;;;21.30;;
60610;SDS011;46439;51.164;13.572;2024-03-02T04:12:37;32.90;;;21.20;;
60610;SDS011;46439;51.164;13.572;2024-03-02T04:15:05;32.70;;;20.90;;
60610;SDS011;46439;51.164;13.572;2024-03-02T04:17:34;37.30;;;21.50;;
60610;SDS011;46439;51.164;13.572;2024-03-02T04:20:04;34.60;;;21.40;;
60610;SDS011;46439;51.164;13.572;2024-03-02T04:22:33;34.90;;;21.30;;
60610;SDS011;46439;51.164;13.572;2024-03-02T04:25:02;30.80;;;20.90;;
60610;SDS011;46439;51.164;13.572;2024-03-02T04:27:31;32.20;;;21.30;;
60610;SDS011;46439;51.164;13.572;2024-03-02T04:29:59;32.70;;;22.10;;
60610;SDS011;46439;51.164;13.572;2024-03-02T04:32:28;36.90;;;23.00;;
60610;SDS011;46439;51.164;13.572;2024-03-02T04:35:03;41.10;;;24.00;;
60610;SDS011;46439;51.164;13.572;2024-03-02T04:37:34;36.70;;;24.50;;
60610;SDS011;46439;51.164;13.572;2024-03-02T04:40:03;37.00;;;24.20;;
60610;SDS011;46439;51.164;13.572;2024-03-02T04:42:34;38.00;;;25.30;;
60610;SDS011;46439;51.164;13.572;2024-03-02T04:45:03;36.90;;;25.20;;
60610;SDS011;46439;51.164;13.572;2024-03-02T04:47:32;39.50;;;25.30;;
60610;SDS011;46439;51.164;13.572;2024-03-02T04:50:00;43.10;;;24.30;;
60610;SDS011;46439;51.164;13.572;2024-03-02T04:52:28;38.70;;;25.50;;
60610;SDS011;46439;51.164;13.572;2024-03-02T04:54:56;41.00;;;26.40;;
60610;SDS011;46439;51.164;13.572;2024-03-02T04:57:45;40.40;;;26.60;;
60610;SDS011;46439;51.164;13.572;2024-03-02T05:00:14;42.50;;;26.40;;
60610;SDS011;46439;51.164;13.572;2024-03-02T05:02:43;38.80;;;25.10;;
60610;SDS011;46439;51.164;13.572;2024-03-02T05:05:11;43.60;;;25.70;;
60610;SDS011;46439;51.164;13.572;2024-03-02T05:07:41;38.80;;;25.40;;
60610;SDS011;46439;51.164;13.572;2024-03-02T05:10:10;39.20;;;23.90;;
60610;SDS011;46439;51.164;13.572;2024-03-02T05:12:38;40.40;;;25.10;;
60610;SDS011;46439;51.164;13.572;2024-03-02T05:15:10;38.00;;;24.60;;
60610;SDS011;46439;51.164;13.572;2024-03-02T05:17:39;38.10;;;23.80;;
60610;SDS011;46439;51.164;13.572;2024-03-02T05:20:11;39.80;;;24.40;;
60610;SDS011;46439;51.164;13.572;2024-03-02T05:22:39;38.10;;;25.60;;
60610;SDS011;46439;51.164;13.572;2024-03-02T05:25:08;38.20;;;25.10;;
60610;SDS011;46439;51.164;13.572;2024-03-02T05:27:36;47.10;;;24.90;;
60610;SDS011;46439;51.164;13.572;2024-03-02T05:30:06;37.30;;;24.60;;
60610;SDS011;46439;51.164;13.572;2024-03-02T05:32:35;39.40;;;25.30;;
60610;SDS011;46439;51.164;13.572;2024-03-02T05:35:04;37.40;;;25.00;;
60610;SDS011;46439;51.164;13.572;2024-03-02T05:37:34;37.40;;;23.50;;
60610;SDS011;46439;51.164;13.572;2024-03-02T05:40:02;36.10;;;24.00;;
60610;SDS011;46439;51.164;13.572;2024-03-02T05:42:32;37.70;;;24.20;;
60610;SDS011;46439;51.164;13.572;2024-03-02T05:45:00;36.60;;;23.70;;
60610;SDS011;46439;51.164;13.572;2024-03-02T05:47:28;37.80;;;25.40;;
60610;SDS011;46439;51.164;13.572;2024-03-02T05:49:56;39.70;;;24.10;;
60610;SDS011;46439;51.164;13.572;2024-03-02T05:52:24;37.10;;;24.00;;
60610;SDS011;46439;51.164;13.572;2024-03-02T05:54:52;40.10;;;24.70;;
60610;SDS011;46439;51.164;13.572;2024-03-02T05:57:20;39.10;;;23.60;;
60610;SDS011;46439;51.164;13.572;2024-03-02T06:00:08;38.80;;;23.00;;
60610;SDS011;46439;51.164;13.572;2024-03-02T06:02:40;38.60;;;24.90;;
60610;SDS011;46439;51.164;13.572;2024-03-02T06:05:08;34.20;;;23.80;;
60610;SDS011;46439;51.164;13.572;2024-03-02T06:07:36;37.70;;;24.40;;
60610;SDS011;46439;51.164;13.572;2024-03-02T06:10:05;33.60;;;22.80;;
60610;SDS011;46439;51.164;13.572;2024-03-02T06:12:35;37.60;;;24.50;;
60610;SDS011;46439;51.164;13.572;2024-03-02T06:15:04;38.00;;;24.70;;
60610;SDS011;46439;51.164;13.572;2024-03-02T06:17:34;39.20;;;24.90;;
60610;SDS011;46439;51.164;13.572;2024-03-02T06:20:03;38.20;;;24.10;;
60610;SDS011;46439;51.164;13.572;2024-03-02T06:22:34;37.10;;;23.60;;
60610;SDS011;46439;51.164;13.572;2024-03-02T06:25:02;40.30;;;25.30;;
60610;SDS011;46439;51.164;13.572;2024-03-02T06:27:31;37.40;;;24.50;;
60610;SDS011;46439;51.164;13.572;2024-03-02T06:29:59;40.40;;;24.70;;
60610;SDS011;46439;51.164;13.572;2024-03-02T06:32:27;40.30;;;24.20;;
60610;SDS011;46439;51.164;13.572;2024-03-02T06:34:55;35.00;;;24.00;;
60610;SDS011;46439;51.164;13.572;2024-03-02T06:37:23;36.80;;;24.80;;
60610;SDS011;46439;51.164;13.572;2024-03-02T06:39:51;40.30;;;25.00;;
60610;SDS011;46439;51.164;13.572;2024-03-02T06:42:19;41.90;;;26.00;;
60610;SDS011;46439;51.164;13.572;2024-03-02T06:44:48;38.50;;;24.80;;
60610;SDS011;46439;51.164;13.572;2024-03-02T06:47:17;38.20;;;25.70;;
60610;SDS011;46439;51.164;13.572;2024-03-02T06:49:46;45.00;;;27.40;;
60610;SDS011;46439;51.164;13.572;2024-03-02T06:52:14;41.60;;;27.60;;
60610;SDS011;46439;51.164;13.572;2024-03-02T06:54:42;41.80;;;26.80;;
60610;SDS011;46439;51.164;13.572;2024-03-02T06:57:10;42.20;;;27.20;;
60610;SDS011;46439;51.164;13.572;2024-03-02T06:59:38;39.90;;;26.40;;
60610;SDS011;46439;51.164;13.572;2024-03-02T07:02:06;36.90;;;26.30;;
60610;SDS011;46439;51.164;13.572;2024-03-02T07:04:35;41.80;;;27.50;;
60610;SDS011;46439;51.164;13.572;2024-03-02T07:07:03;42.20;;;27.00;;
60610;SDS011;46439;51.164;13.572;2024-03-02T07:09:31;45.60;;;28.40;;
60610;SDS011;46439;51.164;13.572;2024-03-02T07:11:59;38.70;;;26.70;;
60610;SDS011;46439;51.164;13.572;2024-03-02T07:14:27;44.00;;;28.00;;
60610;SDS011;46439;51.164;13.572;2024-03-02T07:17:14;43.30;;;28.30;;
60610;SDS011;46439;51.164;13.572;2024-03-02T07:19:42;44.40;;;28.20;;
60610;SDS011;46439;51.164;13.572;2024-03-02T07:22:10;43.80;;;27.50;;
60610;SDS011;46439;51.164;13.572;2024-03-02T07:24:41;44.40;;;27.70;;
60610;SDS011;46439;51.164;13.572;2024-03-02T07:27:10;42.60;;;27.50;;
60610;SDS011;46439;51.164;13.572;2024-03-02T07:29:38;45.20;;;28.80;;
60610;SDS011;46439;51.164;13.572;2024-03-02T07:32:07;43.00;;;27.80;;
60610;SDS011;46439;51.164;13.572;2024-03-02T07:34:36;46.50;;;29.30;;
60610;SDS011;46439;51.164;13.572;2024-03-02T07:37:04;43.30;;;28.00;;
60610;SDS011;46439;51.164;13.572;2024-03-02T07:39:33;47.60;;;30.30;;
60610;SDS011;46439;51.164;13.572;2024-03-02T07:42:01;45.10;;;29.40;;
60610;SDS011;46439;51.164;13.572;2024-03-02T07:44:29;45.20;;;30.60;;
60610;SDS011;46439;51.164;13.572;2024-03-02T07:46:57;48.10;;;29.90;;
60610;SDS011;46439;51.164;13.572;2024-03-02T07:49:25;43.80;;;28.30;;
60610;SDS011;46439;51.164;13.572;2024-03-02T07:51:53;41.20;;;28.90;;
60610;SDS011;46439;51.164;13.572;2024-03-02T07:54:21;41.50;;;28.10;;
60610;SDS011;46439;51.164;13.572;2024-03-02T07:56:50;46.30;;;29.30;;
60610;SDS011;46439;51.164;13.572;2024-03-02T07:59:18;43.60;;;27.30;;
60610;SDS011;46439;51.164;13.572;2024-03-02T08:01:48;40.40;;;27.80;;
60610;SDS011;46439;51.164;13.572;2024-03-02T08:04:17;43.70;;;29.20;;
60610;SDS011;46439;51.164;13.572;2024-03-02T08:06:46;43.60;;;28.60;;
60610;SDS011;46439;51.164;13.572;2024-03-02T08:09:14;44.90;;;31.60;;
60610;SDS011;46439;51.164;13.572;2024-03-02T08:11:42;43.00;;;27.30;;
60610;SDS011;46439;51.164;13.572;2024-03-02T08:14:11;46.00;;;30.20;;
60610;SDS011;46439;51.164;13.572;2024-03-02T08:16:39;44.20;;;29.60;;
60610;SDS011;46439;51.164;13.572;2024-03-02T08:19:07;43.70;;;29.80;;
60610;SDS011;46439;51.164;13.572;2024-03-02T08:21:36;45.90;;;30.00;;
60610;SDS011;46439;51.164;13.572;2024-03-02T08:24:05;45.80;;;30.50;;
60610;SDS011;46439;51.164;13.572;2024-03-02T08:26:34;50.20;;;29.80;;
60610;SDS011;46439;51.164;13.572;2024-03-02T08:29:02;47.80;;;29.10;;
60610;SDS011;46439;51.164;13.572;2024-03-02T08:31:30;48.90;;;29.30;;
60610;SDS011;46439;51.164;13.572;2024-03-02T08:33:58;47.90;;;29.40;;
60610;SDS011;46439;51.164;13.572;2024-03-02T08:36:27;47.90;;;30.10;;
60610;SDS011;46439;51.164;13.572;2024-03-02T08:38:55;48.10;;;30.60;;
60610;SDS011;46439;51.164;13.572;2024-03-02T08:41:23;48.30;;;28.50;;
60610;SDS011;46439;51.164;13.572;2024-03-02T08:43:51;45.80;;;29.10;;
60610;SDS011;46439;51.164;13.572;2024-03-02T08:46:19;44.10;;;27.90;;
60610;SDS011;46439;51.164;13.572;2024-03-02T08:48:47;43.40;;;26.10;;
60610;SDS011;46439;51.164;13.572;2024-03-02T08:51:15;42.60;;;26.10;;
60610;SDS011;46439;51.164;13.572;2024-03-02T08:53:44;37.90;;;25.50;;
60610;SDS011;46439;51.164;13.572;2024-03-02T08:56:12;41.10;;;26.20;;
60610;SDS011;46439;51.164;13.572;2024-03-02T08:58:49;46.20;;;26.80;;
60610;SDS011;46439;51.164;13.572;2024-03-02T09:01:17;43.60;;;26.80;;
60610;SDS011;46439;51.164;13.572;2024-03-02T09:03:46;42.60;;;27.60;;
60610;SDS011;46439;51.164;13.572;2024-03-02T09:06:15;40.00;;;25.80;;
60610;SDS011;46439;51.164;13.572;2024-03-02T09:08:44;40.80;;;25.20;;
60610;SDS011;46439;51.164;13.572;2024-03-02T09:11:12;46.50;;;26.60;;
60610;SDS011;46439;51.164;13.572;2024-03-02T09:13:40;42.10;;;25.00;;
60610;SDS011;46439;51.164;13.572;2024-03-02T09:16:09;37.00;;;24.00;;
60610;SDS011;46439;51.164;13.572;2024-03-02T09:18:37;41.90;;;25.00;;
60610;SDS011;46439;51.164;13.572;2024-03-02T09:21:05;39.80;;;24.30;;
60610;SDS011;46439;51.164;13.572;2024-03-02T09:23:34;38.90;;;24.20;;
60610;SDS011;46439;51.164;13.572;2024-03-02T09:26:02;39.00;;;23.50;;
60610;SDS011;46439;51.164;13.572;2024-03-02T09:28:30;42.90;;;24.60;;
60610;SDS011;46439;51.164;13.572;2024-03-02T09:30:58;39.50;;;23.60;;
60610;SDS011;46439;51.164;13.572;2024-03-02T09:33:28;40.10;;;23.40;;
60610;SDS011;46439;51.164;13.572;2024-03-02T09:35:56;38.40;;;22.80;;
60610;SDS011;46439;51.164;13.572;2024-03-02T09:38:24;40.00;;;22.20;;
60610;SDS011;46439;51.164;13.572;2024-03-02T09:40:52;35.70;;;22.30;;
60610;SDS011;46439;51.164;13.572;2024-03-02T09:43:20;36.30;;;21.70;;
60610;SDS011;46439;51.164;13.572;2024-03-02T09:45:50;29.70;;;19.90;;
60610;SDS011;46439;51.164;13.572;2024-03-02T09:48:18;32.40;;;19.20;;
60610;SDS011;46439;51.164;13.572;2024-03-02T09:50:47;44.20;;;20.90;;
60610;SDS011;46439;51.164;13.572;2024-03-02T09:53:15;31.70;;;18.00;;
60610;SDS011;46439;51.164;13.572;2024-03-02T09:55:47;30.60;;;17.70;;
60610;SDS011;46439;51.164;13.572;2024-03-02T09:58:15;27.50;;;16.80;;
60610;SDS011;46439;51.164;13.572;2024-03-02T10:00:43;26.60;;;16.60;;
60610;SDS011;46439;51.164;13.572;2024-03-02T10:03:13;26.30;;;15.70;;
60610;SDS011;46439;51.164;13.572;2024-03-02T10:05:41;29.40;;;17.30;;
60610;SDS011;46439;51.164;13.572;2024-03-02T10:08:10;26.10;;;15.70;;
60610;SDS011;46439;51.164;13.572;2024-03-02T10:10:38;27.80;;;15.20;;
60610;SDS011;46439;51.164;13.572;2024-03-02T10:13:08;26.60;;;14.50;;
60610;SDS011;46439;51.164;13.572;2024-03-02T10:15:39;22.80;;;14.00;;
60610;SDS011;46439;51.164;13.572;2024-03-02T10:18:09;24.60;;;14.30;;
60610;SDS011;46439;51.164;13.572;2024-03-02T10:20:38;23.90;;;14.00;;
60610;SDS011;46439;51.164;13.572;2024-03-02T10:23:13;38.00;;;16.80;;
60610;SDS011;46439;51.164;13.572;2024-03-02T10:25:43;24.20;;;14.60;;
60610;SDS011;46439;51.164;13.572;2024-03-02T10:28:12;29.30;;;14.90;;
60610;SDS011;46439;51.164;13.572;2024-03-02T10:30:41;28.70;;;14.90;;
60610;SDS011;46439;51.164;13.572;2024-03-02T10:33:13;25.00;;;15.00;;
60610;SDS011;46439;51.164;13.572;2024-03-02T10:35:43;27.90;;;14.90;;
60610;SDS011;46439;51.164;13.572;2024-03-02T10:38:14;22.60;;;13.40;;
60610;SDS011;46439;51.164;13.572;2024-03-02T10:40:46;23.00;;;13.80;;
60610;SDS011;46439;51.164;13.572;2024-03-02T10:43:17;22.60;;;13.10;;
60610;SDS011;46439;51.164;13.572;2024-03-02T10:45:48;21.10;;;13.50;;
60610;SDS011;46439;51.164;13.572;2024-03-02T10:48:18;23.40;;;12.80;;
60610;SDS011;46439;51.164;13.572;2024-03-02T10:50:47;20.00;;;12.00;;
60610;SDS011;46439;51.164;13.572;2024-03-02T10:53:17;19.70;;;12.10;;
60610;SDS011;46439;51.164;13.572;2024-03-02T10:55:47;20.80;;;11.80;;
60610;SDS011;46439;51.164;13.572;2024-03-02T10:58:31;21.20;;;11.40;;
60610;SDS011;46439;51.164;13.572;2024-03-02T11:01:15;18.80;;;11.20;;
60610;SDS011;46439;51.164;13.572;2024-03-02T11:03:51;18.20;;;11.00;;
60610;SDS011;46439;51.164;13.572;2024-03-02T11:06:36;20.70;;;11.70;;
60610;SDS011;46439;51.164;13.572;2024-03-02T11:09:18;20.20;;;11.60;;
60610;SDS011;46439;51.164;13.572;2024-03-02T11:12:02;17.60;;;11.20;;
60610;SDS011;46439;51.164;13.572;2024-03-02T11:14:35;22.10;;;12.30;;
60610;SDS011;46439;51.164;13.572;2024-03-02T11:17:09;20.20;;;13.20;;
60610;SDS011;46439;51.164;13.572;2024-03-02T11:19:42;22.40;;;14.20;;
60610;SDS011;46439;51.164;13.572;2024-03-02T11:22:11;25.20;;;13.40;;
60610;SDS011;46439;51.164;13.572;2024-03-02T11:24:41;23.10;;;13.10;;
60610;SDS011;46439;51.164;13.572;2024-03-02T11:27:20;23.90;;;13.70;;
60610;SDS011;46439;51.164;13.572;2024-03-02T11:33:18;22.60;;;13.30;;
60610;SDS011;46439;51.164;13.572;2024-03-02T11:35:51;21.60;;;13.60;;
60610;SDS011;46439;51.164;13.572;2024-03-02T11:38:22;24.90;;;14.40;;
60610;SDS011;46439;51.164;13.572;2024-03-02T11:40:53;24.10;;;14.00;;
60610;SDS011;46439;51.164;13.572;2024-03-02T11:43:22;21.50;;;12.60;;
60610;SDS011;46439;51.164;13.572;2024-03-02T11:45:57;17.40;;;11.30;;
60610;SDS011;46439;51.164;13.572;2024-03-02T11:48:26;17.90;;;11.60;;
60610;SDS011;46439;51.164;13.572;2024-03-02T11:50:57;20.90;;;10.90;;
60610;SDS011;46439;51.164;13.572;2024-03-02T11:53:27;18.40;;;9.60;;
60610;SDS011;46439;51.164;13.572;2024-03-02T11:55:58;15.50;;;8.80;;
60610;SDS011;46439;51.164;13.572;2024-03-02T11:58:28;17.90;;;9.50;;
60610;SDS011;46439;51.164;13.572;2024-03-02T12:00:56;16.50;;;8.90;;
60610;SDS011;46439;51.164;13.572;2024-03-02T12:03:24;14.00;;;8.30;;
60610;SDS011;46439;51.164;13.572;2024-03-02T12:05:54;14.90;;;8.60;;
60610;SDS011;46439;51.164;13.572;2024-03-02T12:08:22;16.70;;;8.30;;
60610;SDS011;46439;51.164;13.572;2024-03-02T12:10:57;13.50;;;7.70;;
60610;SDS011;46439;51.164;13.572;2024-03-02T12:13:27;12.80;;;7.60;;
60610;SDS011;46439;51.164;13.572;2024-03-02T12:15:55;15.90;;;8.00;;
60610;SDS011;46439;51.164;13.572;2024-03-02T12:18:24;14.00;;;8.00;;
60610;SDS011;46439;51.164;13.572;2024-03-02T12:20:52;16.10;;;7.60;;
60610;SDS011;46439;51.164;13.572;2024-03-02T12:23:23;13.90;;;6.80;;
60610;SDS011;46439;51.164;13.572;2024-03-02T12:25:52;14.60;;;6.20;;
60610;SDS011;46439;51.164;13.572;2024-03-02T12:28:21;13.00;;;6.50;;
60610;SDS011;46439;51.164;13.572;2024-03-02T12:30:49;12.80;;;7.40;;
60610;SDS011;46439;51.164;13.572;2024-03-02T12:33:18;16.80;;;7.50;;
60610;SDS011;46439;51.164;13.572;2024-03-02T12:35:48;13.70;;;7.40;;
60610;SDS011;46439;51.164;13.572;2024-03-02T12:38:16;13.70;;;7.00;;
60610;SDS011;46439;51.164;13.572;2024-03-02T12:40:46;15.90;;;8.00;;
60610;SDS011;46439;51.164;13.572;2024-03-02T12:43:15;10.60;;;7.10;;
60610;SDS011;46439;51.164;13.572;2024-03-02T12:45:50;11.20;;;6.40;;
60610;SDS011;46439;51.164;13.572;2024-03-02T12:48:19;11.50;;;7.10;;
60610;SDS011;46439;51.164;13.572;2024-03-02T12:50:47;12.20;;;7.20;;
60610;SDS011;46439;51.164;13.572;2024-03-02T12:53:16;13.40;;;7.80;;
60610;SDS011;46439;51.164;13.572;2024-03-02T12:55:44;12.80;;;7.30;;
60610;SDS011;46439;51.164;13.572;2024-03-02T12:58:18;10.90;;;7.20;;
60610;SDS011;46439;51.164;13.572;2024-03-02T13:00:49;12.30;;;7.30;;
60610;SDS011;46439;51.164;13.572;2024-03-02T13:03:34;11.10;;;6.90;;
60610;SDS011;46439;51.164;13.572;2024-03-02T13:08:31;11.10;;;6.30;;
60610;SDS011;46439;51.164;13.572;2024-03-02T13:11:00;10.70;;;6.70;;
60610;SDS011;46439;51.164;13.572;2024-03-02T13:13:31;11.70;;;6.40;;
60610;SDS011;46439;51.164;13.572;2024-03-02T13:16:01;12.90;;;6.60;;
60610;SDS011;46439;51.164;13.572;2024-03-02T13:18:30;12.30;;;6.70;;
60610;SDS011;46439;51.164;13.572;2024-03-02T13:20:59;13.00;;;7.10;;
60610;SDS011;46439;51.164;13.572;2024-03-02T13:23:27;16.10;;;8.80;;
60610;SDS011;46439;51.164;13.572;2024-03-02T13:25:57;18.20;;;10.00;;
60610;SDS011;46439;51.164;13.572;2024-03-02T13:28:25;20.20;;;10.10;;
60610;SDS011;46439;51.164;13.572;2024-03-02T13:30:53;17.50;;;9.90;;
60610;SDS011;46439;51.164;13.572;2024-03-02T13:33:22;19.60;;;10.00;;
60610;SDS011;46439;51.164;13.572;2024-03-02T13:35:50;19.80;;;11.40;;
60610;SDS011;46439;51.164;13.572;2024-03-02T13:38:18;25.10;;;11.00;;
60610;SDS011;46439;51.164;13.572;2024-03-02T13:40:47;27.80;;;12.20;;
60610;SDS011;46439;51.164;13.572;2024-03-02T13:43:19;22.20;;;11.40;;
60610;SDS011;46439;51.164;13.572;2024-03-02T13:45:50;21.10;;;10.20;;
60610;SDS011;46439;51.164;13.572;2024-03-02T13:48:18;22.30;;;10.30;;
60610;SDS011;46439;51.164;13.572;2024-03-02T13:50:47;24.30;;;11.40;;
60610;SDS011;46439;51.164;13.572;2024-03-02T13:53:15;20.60;;;11.00;;
60610;SDS011;46439;51.164;13.572;2024-03-02T13:55:44;20.50;;;11.90;;
60610;SDS011;46439;51.164;13.572;2024-03-02T13:58:12;24.10;;;12.50;;
60610;SDS011;46439;51.164;13.572;2024-03-02T14:00:40;22.00;;;11.70;;
60610;SDS011;46439;51.164;13.572;2024-03-02T14:03:10;19.10;;;11.20;;
60610;SDS011;46439;51.164;13.572;2024-03-02T14:05:38;24.80;;;11.40;;
60610;SDS011;46439;51.164;13.572;2024-03-02T14:08:07;21.90;;;12.00;;
60610;SDS011;46439;51.164;13.572;2024-03-02T14:10:35;19.60;;;11.50;;
60610;SDS011;46439;51.164;13.572;2024-03-02T14:13:03;23.10;;;11.60;;
60610;SDS011;46439;51.164;13.572;2024-03-02T14:15:38;18.30;;;11.20;;
60610;SDS011;46439;51.164;13.572;2024-03-02T14:18:07;21.80;;;11.50;;
60610;SDS011;46439;51.164;13.572;2024-03-02T14:20:37;22.80;;;10.90;;
60610;SDS011;46439;51.164;13.572;2024-03-02T14:23:12;22.80;;;11.80;;
60610;SDS011;46439;51.164;13.572;2024-03-02T14:25:40;22.00;;;12.00;;
60610;SDS011;46439;51.164;13.572;2024-03-02T14:28:09;19.80;;;11.50;;
60610;SDS011;46439;51.164;13.572;2024-03-02T14:30:38;23.00;;;11.20;;
60610;SDS011;46439;51.164;13.572;2024-03-02T14:33:06;23.00;;;11.10;;